Time;durP1;ratioP1;P1;durP2;ratioP2;P2;SDS_P1;SDS_P2;PMS_P1;PMS_P2;Temp;Humidity;BMP_temperature;BMP_pressure;BME280_temperature;BME280_humidity;BME280_pressure;Samples;Min_cycle;Max_cycle;Signal;HPM_P1;HPM_P2
2022/03/07 00:00:48;;;;;;;11.83;6.37;;;2.10;99.90;;;;;;4065433;29;20242;-94
2022/03/07 00:02:49;;;;;;;14.00;7.20;;;2.10;99.90;;;;;;4066420;29;20164;-94
2022/03/07 00:04:49;;;;;;;13.37;7.67;;;2.10;99.90;;;;;;4082000;29;20220;-93
2022/03/07 00:06:50;;;;;;;12.50;7.17;;;2.10;99.90;;;;;;4067141;29;20232;-93
2022/03/07 00:08:51;;;;;;;12.10;7.20;;;2.00;99.90;;;;;;4065748;29;20268;-94
2022/03/07 00:10:52;;;;;;;12.53;7.40;;;1.90;99.90;;;;;;4064532;29;20732;-94
2022/03/07 00:12:53;;;;;;;14.93;6.47;;;1.90;99.90;;;;;;4081752;29;20200;-95
2022/03/07 00:15:01;;;;;;;13.03;7.50;;;2.00;99.90;;;;;;4065817;29;20609;-94
2022/03/07 00:17:02;;;;;;;14.10;6.93;;;1.90;99.90;;;;;;4064290;29;20184;-94
2022/03/07 00:19:02;;;;;;;16.53;7.37;;;1.90;99.90;;;;;;4066074;29;20184;-93
2022/03/07 00:21:05;;;;;;;14.37;7.37;;;1.90;99.90;;;;;;4063450;29;20177;-94
2022/03/07 00:23:15;;;;;;;12.27;7.57;;;1.80;99.90;;;;;;4079732;29;20171;-94
2022/03/07 00:25:17;;;;;;;14.07;8.03;;;1.80;99.90;;;;;;4066286;29;20217;-93
2022/03/07 00:27:17;;;;;;;13.37;7.50;;;1.80;99.90;;;;;;4063805;29;20157;-94
2022/03/07 00:29:19;;;;;;;15.83;7.97;;;1.80;99.90;;;;;;4077152;29;20211;-94
2022/03/07 00:31:22;;;;;;;12.57;7.97;;;1.80;99.90;;;;;;4062388;29;20177;-94
2022/03/07 00:33:23;;;;;;;11.43;7.17;;;1.80;99.90;;;;;;4061422;29;20185;-94
2022/03/07 00:35:24;;;;;;;13.40;7.73;;;1.90;99.90;;;;;;4065235;29;20192;-93
2022/03/07 00:37:45;;;;;;;15.17;8.13;;;1.90;99.90;;;;;;4077879;29;20195;-94
2022/03/07 00:39:47;;;;;;;14.30;7.57;;;2.00;99.90;;;;;;4076876;29;20183;-93
2022/03/07 00:41:48;;;;;;;12.20;7.90;;;1.90;99.90;;;;;;4063276;29;20637;-94
2022/03/07 00:43:49;;;;;;;15.27;7.87;;;1.90;99.90;;;;;;4078822;29;20624;-95
2022/03/07 00:45:50;;;;;;;16.60;8.33;;;2.00;99.90;;;;;;4065565;29;20213;-93
2022/03/07 00:47:52;;;;;;;15.47;7.83;;;2.00;99.90;;;;;;4063150;29;20225;-93
2022/03/07 00:49:52;;;;;;;14.17;8.60;;;2.10;99.90;;;;;;4063456;29;20594;-96
2022/03/07 00:51:53;;;;;;;15.57;8.03;;;2.10;99.90;;;;;;4063797;29;20169;-93
2022/03/07 00:53:54;;;;;;;15.67;8.73;;;2.00;99.90;;;;;;4066256;29;20177;-94
2022/03/07 00:55:56;;;;;;;16.17;8.10;;;2.10;99.90;;;;;;4063357;29;20251;-94
2022/03/07 00:57:57;;;;;;;13.80;7.83;;;2.10;99.90;;;;;;4078849;29;20172;-94
2022/03/07 00:59:59;;;;;;;13.80;7.93;;;2.10;99.90;;;;;;4064832;29;20192;-95
2022/03/07 01:02:05;;;;;;;12.10;7.40;;;2.10;99.90;;;;;;4066822;29;20172;-94
2022/03/07 01:04:05;;;;;;;13.20;7.83;;;2.00;99.90;;;;;;4063366;29;20169;-93
2022/03/07 01:06:06;;;;;;;13.93;7.83;;;1.90;99.90;;;;;;4081353;29;20606;-93
2022/03/07 01:08:11;;;;;;;13.27;7.87;;;1.90;99.90;;;;;;4080131;29;20180;-93
2022/03/07 01:10:12;;;;;;;16.60;8.23;;;1.80;99.90;;;;;;4063520;29;20188;-93
2022/03/07 01:12:12;;;;;;;15.00;8.20;;;1.80;99.90;;;;;;4063597;29;20180;-95
2022/03/07 01:14:14;;;;;;;12.70;8.00;;;1.70;99.90;;;;;;4062082;29;20220;-92
2022/03/07 01:16:15;;;;;;;14.40;8.70;;;1.70;99.90;;;;;;4062686;29;20153;-93
2022/03/07 01:18:18;;;;;;;15.93;8.37;;;1.70;99.90;;;;;;4081121;29;20191;-92
2022/03/07 01:20:18;;;;;;;14.47;8.37;;;1.60;99.90;;;;;;4067869;29;20181;-95
2022/03/07 01:22:19;;;;;;;14.13;8.20;;;1.50;99.90;;;;;;4064596;29;20638;-95
2022/03/07 01:24:21;;;;;;;15.60;8.27;;;1.50;99.90;;;;;;4064341;29;20291;-96
2022/03/07 01:26:22;;;;;;;14.40;8.03;;;1.60;99.90;;;;;;4066010;29;20753;-95
2022/03/07 01:28:23;;;;;;;12.13;7.63;;;1.50;99.90;;;;;;4065110;29;20161;-92
2022/03/07 01:30:23;;;;;;;14.27;7.93;;;1.50;99.90;;;;;;4065429;29;20172;-95
2022/03/07 01:32:24;;;;;;;17.57;7.83;;;1.50;99.90;;;;;;4079086;29;20163;-93
2022/03/07 01:34:30;;;;;;;17.57;8.43;;;1.50;99.90;;;;;;4083011;29;20193;-92
2022/03/07 01:36:30;;;;;;;16.60;8.73;;;1.60;99.90;;;;;;4063045;29;20188;-94
2022/03/07 01:38:31;;;;;;;12.77;8.00;;;1.60;99.90;;;;;;4077870;29;20184;-91
2022/03/07 01:40:32;;;;;;;13.00;8.03;;;1.60;99.90;;;;;;4064438;29;20177;-93
2022/03/07 01:42:33;;;;;;;14.90;8.77;;;1.60;99.90;;;;;;4075168;29;20280;-91
2022/03/07 01:44:34;;;;;;;16.40;8.53;;;1.70;99.90;;;;;;4054073;29;20193;-91
2022/03/07 01:46:35;;;;;;;14.03;7.73;;;1.60;99.90;;;;;;4054108;29;20332;-92
2022/03/07 01:48:37;;;;;;;14.43;8.63;;;1.70;99.90;;;;;;4070552;29;20545;-94
2022/03/07 01:50:37;;;;;;;13.43;8.40;;;1.80;99.90;;;;;;4053530;29;20662;-91
2022/03/07 01:52:44;;;;;;;15.40;8.70;;;1.90;99.90;;;;;;4070115;29;20175;-93
2022/03/07 01:54:46;;;;;;;15.20;8.53;;;1.90;99.90;;;;;;4054173;29;20292;-92
2022/03/07 01:56:49;;;;;;;18.00;8.80;;;1.90;99.90;;;;;;4053782;29;20201;-91
2022/03/07 01:58:50;;;;;;;13.67;8.43;;;2.00;99.90;;;;;;4053393;29;20180;-92
2022/03/07 02:00:51;;;;;;;16.93;9.07;;;2.00;99.90;;;;;;4053743;29;20729;-92
2022/03/07 02:02:56;;;;;;;14.37;8.27;;;2.10;99.90;;;;;;4053778;29;20208;-92
2022/03/07 02:05:10;;;;;;;13.47;8.40;;;2.00;99.90;;;;;;4055005;29;20291;-92
2022/03/07 02:07:12;;;;;;;14.97;8.57;;;1.90;99.90;;;;;;4054038;29;20190;-92
2022/03/07 02:09:14;;;;;;;17.27;9.30;;;1.80;99.90;;;;;;4069122;29;20277;-92
2022/03/07 02:11:19;;;;;;;13.70;8.77;;;1.70;99.90;;;;;;4054179;29;20184;-90
2022/03/07 02:13:21;;;;;;;14.27;8.93;;;1.60;99.90;;;;;;4053774;29;20185;-91
2022/03/07 02:15:32;;;;;;;16.30;8.90;;;1.50;99.90;;;;;;4055461;29;20203;-91
2022/03/07 02:17:34;;;;;;;16.37;8.97;;;1.40;99.90;;;;;;4069227;29;20263;-91
2022/03/07 02:19:36;;;;;;;15.80;9.00;;;1.40;99.90;;;;;;4053712;29;20225;-94
2022/03/07 02:21:48;;;;;;;13.60;8.13;;;1.40;99.90;;;;;;4054125;29;20180;-95
2022/03/07 02:23:51;;;;;;;16.13;8.93;;;1.30;99.90;;;;;;4054065;29;20264;-92
2022/03/07 02:25:52;;;;;;;19.43;9.40;;;1.20;99.90;;;;;;4053821;29;20215;-93
2022/03/07 02:27:53;;;;;;;16.30;9.07;;;1.20;99.90;;;;;;4085119;29;20270;-92
2022/03/07 02:29:54;;;;;;;14.63;8.83;;;1.20;99.90;;;;;;4053543;29;20238;-91
2022/03/07 02:32:01;;;;;;;15.00;8.23;;;1.20;99.90;;;;;;4054731;29;20184;-92
2022/03/07 02:34:05;;;;;;;17.07;8.97;;;1.20;99.90;;;;;;4053330;29;20176;-91
2022/03/07 02:36:07;;;;;;;17.73;8.57;;;1.30;99.90;;;;;;4053263;29;20176;-92
2022/03/07 02:38:15;;;;;;;14.67;8.40;;;1.20;99.90;;;;;;4053492;29;20173;-91
2022/03/07 02:40:20;;;;;;;17.07;9.20;;;1.20;99.90;;;;;;4053508;29;20236;-94
2022/03/07 02:42:21;;;;;;;18.30;8.63;;;1.20;99.90;;;;;;4053524;29;20173;-93
2022/03/07 02:44:24;;;;;;;14.97;8.30;;;1.30;99.90;;;;;;4055029;29;20189;-93
2022/03/07 02:46:24;;;;;;;16.03;9.03;;;1.20;99.90;;;;;;4053474;29;20213;-92
2022/03/07 02:48:25;;;;;;;14.87;9.30;;;1.20;99.90;;;;;;4068818;29;20168;-92
2022/03/07 02:50:26;;;;;;;14.37;8.80;;;1.10;99.90;;;;;;4055087;29;20772;-93
2022/03/07 02:52:27;;;;;;;15.10;9.23;;;1.00;99.90;;;;;;4069911;29;20717;-91
2022/03/07 02:54:28;;;;;;;16.03;9.67;;;1.00;99.90;;;;;;4054617;29;20201;-95
2022/03/07 02:56:29;;;;;;;12.43;8.60;;;0.90;99.90;;;;;;4054016;29;20633;-92
2022/03/07 02:58:29;;;;;;;13.20;8.87;;;0.90;99.90;;;;;;4052711;29;20173;-90
2022/03/07 03:00:31;;;;;;;17.40;9.23;;;0.90;99.90;;;;;;4052835;29;20542;-91
2022/03/07 03:02:31;;;;;;;15.13;8.80;;;1.00;99.90;;;;;;4052975;29;20165;-92
2022/03/07 03:04:33;;;;;;;13.67;9.17;;;1.00;99.90;;;;;;4069501;29;20207;-91
2022/03/07 03:06:34;;;;;;;18.20;8.90;;;1.10;99.90;;;;;;4053006;29;20236;-91
2022/03/07 03:08:35;;;;;;;16.47;9.10;;;1.10;99.90;;;;;;4052842;29;20185;-91
2022/03/07 03:10:36;;;;;;;16.33;8.93;;;1.20;99.90;;;;;;4052937;29;20562;-91
2022/03/07 03:12:37;;;;;;;15.27;8.70;;;1.20;99.90;;;;;;4052964;29;20213;-92
2022/03/07 03:14:39;;;;;;;14.03;8.73;;;1.20;99.90;;;;;;4052647;29;20236;-92
2022/03/07 03:16:40;;;;;;;16.03;9.40;;;1.30;99.90;;;;;;4052905;29;20179;-91
2022/03/07 03:18:41;;;;;;;17.60;8.50;;;1.30;99.90;;;;;;4053421;29;20177;-90
2022/03/07 03:20:43;;;;;;;16.97;9.33;;;1.30;99.90;;;;;;4068416;29;20184;-91
2022/03/07 03:22:45;;;;;;;16.80;9.10;;;1.10;99.90;;;;;;4053698;29;20324;-92
2022/03/07 03:24:47;;;;;;;16.70;9.27;;;1.20;99.90;;;;;;4052835;29;20209;-92
2022/03/07 03:26:48;;;;;;;14.83;8.33;;;1.20;99.90;;;;;;4052536;29;20181;-92
2022/03/07 03:28:48;;;;;;;15.97;8.70;;;1.20;99.90;;;;;;4068936;29;20204;-90
2022/03/07 03:30:50;;;;;;;18.50;9.50;;;1.10;99.90;;;;;;4052591;29;20337;-92
2022/03/07 03:32:51;;;;;;;13.93;8.27;;;1.20;99.90;;;;;;4052706;29;20191;-92
2022/03/07 03:34:52;;;;;;;19.20;8.60;;;1.20;99.90;;;;;;4053535;29;20697;-91
2022/03/07 03:36:53;;;;;;;14.07;8.50;;;1.20;99.90;;;;;;4053142;29;20181;-91
2022/03/07 03:38:54;;;;;;;19.60;9.27;;;1.20;99.90;;;;;;4068179;29;20206;-92
2022/03/07 03:40:57;;;;;;;14.87;8.20;;;1.20;99.90;;;;;;4053140;29;20307;-92
2022/03/07 03:42:58;;;;;;;15.83;8.83;;;1.30;99.90;;;;;;4052831;29;20189;-92
2022/03/07 03:44:59;;;;;;;13.77;9.20;;;1.30;99.90;;;;;;4068092;29;20204;-91
2022/03/07 03:47:00;;;;;;;15.67;9.73;;;1.20;99.90;;;;;;4052161;29;20169;-95
2022/03/07 03:49:01;;;;;;;17.43;9.30;;;1.20;99.90;;;;;;4069032;29;20180;-91
2022/03/07 03:51:02;;;;;;;19.37;9.93;;;1.20;99.90;;;;;;4056471;29;20181;-94
2022/03/07 03:53:03;;;;;;;17.37;10.17;;;1.10;99.90;;;;;;4041463;29;20265;-92
2022/03/07 03:55:06;;;;;;;16.53;9.63;;;1.20;99.90;;;;;;4055576;29;20686;-92
2022/03/07 03:57:06;;;;;;;17.97;9.70;;;1.10;99.90;;;;;;4057076;29;20183;-92
2022/03/07 03:59:07;;;;;;;18.00;9.63;;;1.20;99.90;;;;;;4056219;29;20188;-92
2022/03/07 04:01:08;;;;;;;17.97;9.63;;;1.20;99.90;;;;;;4071677;29;20696;-93
2022/03/07 04:03:09;;;;;;;16.83;9.10;;;1.20;99.90;;;;;;4055241;29;20217;-92
2022/03/07 04:05:14;;;;;;;15.53;9.43;;;1.20;99.90;;;;;;4055108;29;20208;-92
2022/03/07 04:07:15;;;;;;;17.93;9.80;;;1.20;99.90;;;;;;4074098;29;20192;-93
2022/03/07 04:09:19;;;;;;;19.70;9.50;;;1.20;99.90;;;;;;4073137;29;20180;-94
2022/03/07 04:11:23;;;;;;;19.70;10.80;;;1.30;99.90;;;;;;4073160;29;20172;-93
2022/03/07 04:13:24;;;;;;;14.20;9.30;;;1.30;99.90;;;;;;4055034;29;20287;-92
2022/03/07 04:15:26;;;;;;;18.37;9.43;;;1.30;99.90;;;;;;4055305;29;20220;-92
2022/03/07 04:17:27;;;;;;;23.30;9.97;;;1.40;99.90;;;;;;4055624;29;20173;-93
2022/03/07 04:19:28;;;;;;;17.37;9.70;;;1.30;99.90;;;;;;4070456;29;20271;-93
2022/03/07 04:21:32;;;;;;;17.23;9.60;;;1.30;99.90;;;;;;4071269;29;20248;-95
2022/03/07 04:23:35;;;;;;;15.67;9.97;;;1.30;99.90;;;;;;4056405;29;20181;-94
2022/03/07 04:25:36;;;;;;;19.33;10.43;;;1.20;99.90;;;;;;4056480;29;20221;-92
2022/03/07 04:27:37;;;;;;;23.17;9.77;;;1.30;99.90;;;;;;4071805;29;20172;-92
2022/03/07 04:29:38;;;;;;;17.50;10.07;;;1.30;99.90;;;;;;4055956;29;20189;-92
2022/03/07 04:31:41;;;;;;;18.23;10.00;;;1.30;99.90;;;;;;4055827;29;20263;-91
2022/03/07 04:33:42;;;;;;;17.03;10.27;;;1.20;99.90;;;;;;4075385;29;20180;-92
2022/03/07 04:35:43;;;;;;;15.77;9.63;;;1.30;99.90;;;;;;4062276;29;20287;-94
2022/03/07 04:37:44;;;;;;;19.67;10.80;;;1.20;99.90;;;;;;4075797;29;20689;-93
2022/03/07 04:39:45;;;;;;;17.70;10.73;;;1.20;99.90;;;;;;4061750;29;20201;-94
2022/03/07 04:41:46;;;;;;;17.07;10.13;;;1.10;99.90;;;;;;4058670;29;20181;-94
2022/03/07 04:43:46;;;;;;;19.33;10.27;;;1.10;99.90;;;;;;4072335;29;20660;-93
2022/03/07 04:45:47;;;;;;;18.57;10.40;;;1.10;99.90;;;;;;4055391;29;20220;-92
2022/03/07 04:47:49;;;;;;;24.43;10.13;;;1.00;99.90;;;;;;4055370;29;20208;-93
2022/03/07 04:49:49;;;;;;;20.33;11.10;;;1.00;99.90;;;;;;4055030;29;20181;-93
2022/03/07 04:51:50;;;;;;;19.97;10.43;;;1.00;99.90;;;;;;4072246;29;20176;-95
2022/03/07 04:53:51;;;;;;;18.30;10.03;;;1.00;99.90;;;;;;4056622;29;20267;-94
2022/03/07 04:55:52;;;;;;;20.23;10.33;;;1.00;99.90;;;;;;4071698;29;20800;-93
2022/03/07 04:57:53;;;;;;;21.23;11.30;;;1.00;99.90;;;;;;4056336;29;20193;-93
2022/03/07 04:59:53;;;;;;;18.70;10.73;;;1.10;99.90;;;;;;4071904;29;20289;-92
2022/03/07 05:01:54;;;;;;;23.13;10.37;;;1.10;99.90;;;;;;4054528;29;20227;-93
2022/03/07 05:03:55;;;;;;;15.97;10.50;;;1.10;99.90;;;;;;4059785;29;20168;-93
2022/03/07 05:05:56;;;;;;;22.13;10.90;;;1.00;99.90;;;;;;4073950;29;20233;-94
2022/03/07 05:07:58;;;;;;;18.10;10.43;;;0.90;99.90;;;;;;4070211;29;20279;-93
2022/03/07 05:09:59;;;;;;;20.40;11.03;;;0.80;99.90;;;;;;4054643;29;20626;-94
2022/03/07 05:12:00;;;;;;;42.73;11.90;;;0.70;99.90;;;;;;4054982;29;20284;-91
2022/03/07 05:14:01;;;;;;;18.60;10.57;;;0.70;99.90;;;;;;4070174;29;20196;-93
2022/03/07 05:16:03;;;;;;;27.37;11.20;;;0.70;99.90;;;;;;4064138;29;20210;-92
2022/03/07 05:18:04;;;;;;;16.87;10.80;;;0.70;99.90;;;;;;4066893;29;20188;-93
2022/03/07 05:20:06;;;;;;;22.20;10.77;;;0.70;99.90;;;;;;4084328;29;20243;-93
2022/03/07 05:22:08;;;;;;;25.10;11.17;;;0.70;99.90;;;;;;4070449;29;20669;-92
2022/03/07 05:24:09;;;;;;;18.90;10.83;;;0.70;99.90;;;;;;4085423;29;20526;-92
2022/03/07 05:26:10;;;;;;;19.17;10.67;;;0.70;99.90;;;;;;4068732;29;20255;-92
2022/03/07 05:28:11;;;;;;;22.07;11.67;;;0.70;99.90;;;;;;4068587;29;20241;-93
2022/03/07 05:30:15;;;;;;;16.60;10.50;;;0.70;99.90;;;;;;4068042;29;20176;-91
2022/03/07 05:32:15;;;;;;;19.23;11.33;;;0.80;99.90;;;;;;4068521;29;20166;-92
2022/03/07 05:34:16;;;;;;;26.20;11.57;;;0.80;99.90;;;;;;4083678;29;20207;-91
2022/03/07 05:36:17;;;;;;;21.57;11.70;;;0.90;99.90;;;;;;4067551;29;20184;-93
2022/03/07 05:38:18;;;;;;;24.80;12.97;;;0.90;99.90;;;;;;4066465;29;20184;-91
2022/03/07 05:40:19;;;;;;;22.53;12.20;;;0.90;99.90;;;;;;4064861;29;20173;-93
2022/03/07 05:42:20;;;;;;;28.77;12.63;;;0.80;99.90;;;;;;4065821;29;20185;-92
2022/03/07 05:44:21;;;;;;;24.57;11.80;;;0.60;99.90;;;;;;4080744;29;20243;-93
2022/03/07 05:46:22;;;;;;;19.40;11.37;;;0.60;99.90;;;;;;4077278;29;20211;-92
2022/03/07 05:48:23;;;;;;;20.33;11.77;;;0.70;99.90;;;;;;4062603;29;20240;-91
2022/03/07 05:50:23;;;;;;;17.43;11.07;;;0.60;99.90;;;;;;4067167;29;20185;-92
2022/03/07 05:52:25;;;;;;;23.87;11.03;;;0.60;99.90;;;;;;4066475;29;20169;-92
2022/03/07 05:54:26;;;;;;;23.53;11.30;;;0.70;99.90;;;;;;4066511;29;20285;-92
2022/03/07 05:56:26;;;;;;;23.17;11.77;;;0.50;99.90;;;;;;4065442;29;20177;-92
2022/03/07 05:58:27;;;;;;;18.53;10.70;;;0.70;99.90;;;;;;4066240;29;20244;-91
2022/03/07 06:00:29;;;;;;;24.97;11.90;;;0.80;99.90;;;;;;4067230;29;20201;-91
2022/03/07 06:02:30;;;;;;;32.73;13.57;;;0.70;99.90;;;;;;4063488;29;20184;-92
2022/03/07 06:04:31;;;;;;;23.27;12.30;;;0.50;99.90;;;;;;4056755;29;20289;-92
2022/03/07 06:06:31;;;;;;;25.00;12.83;;;0.30;99.90;;;;;;4054853;29;20720;-93
2022/03/07 06:08:32;;;;;;;24.67;13.03;;;0.30;99.90;;;;;;4054307;29;20175;-91
2022/03/07 06:10:33;;;;;;;23.30;12.37;;;0.30;99.90;;;;;;4053518;29;20228;-91
2022/03/07 06:12:34;;;;;;;23.77;13.37;;;0.30;99.90;;;;;;4053570;29;20177;-92
2022/03/07 06:14:38;;;;;;;21.70;11.77;;;0.30;99.90;;;;;;4053447;29;20212;-93
2022/03/07 06:16:38;;;;;;;22.23;12.70;;;0.30;99.90;;;;;;4053811;29;20173;-93
2022/03/07 06:18:39;;;;;;;28.07;13.27;;;0.40;99.90;;;;;;4053343;29;20233;-91
2022/03/07 06:20:49;;;;;;;22.70;12.67;;;0.50;99.90;;;;;;4057139;29;20205;-93
2022/03/07 06:23:00;;;;;;;23.63;12.47;;;0.60;99.90;;;;;;4058761;29;20216;-93
2022/03/07 06:25:07;;;;;;;27.30;14.17;;;0.60;99.90;;;;;;4058436;29;20219;-94
2022/03/07 06:27:14;;;;;;;35.20;13.73;;;0.70;99.90;;;;;;4056740;29;20188;-93
2022/03/07 06:29:23;;;;;;;33.23;13.30;;;0.70;99.90;;;;;;4056404;29;20173;-94
2022/03/07 06:31:32;;;;;;;34.30;13.57;;;0.70;99.90;;;;;;4058177;29;20206;-94
2022/03/07 06:33:41;;;;;;;46.47;14.83;;;0.60;99.90;;;;;;4059927;29;20232;-94
2022/03/07 06:35:59;;;;;;;36.30;14.37;;;0.70;99.90;;;;;;4059566;29;20201;-94
2022/03/07 06:38:16;;;;;;;35.13;13.30;;;0.70;99.90;;;;;;4061312;29;20192;-94
2022/03/07 06:40:34;;;;;;;57.37;14.90;;;0.70;99.90;;;;;;4061031;29;20176;-94
2022/03/07 06:42:58;;;;;;;35.20;13.33;;;0.70;99.90;;;;;;4074063;29;20176;-94
2022/03/07 06:45:05;;;;;;;27.67;13.00;;;0.90;99.90;;;;;;4058042;29;20295;-94
2022/03/07 06:47:12;;;;;;;39.97;15.90;;;1.10;99.90;;;;;;4059855;29;20189;-95
2022/03/07 06:49:18;;;;;;;39.27;13.80;;;1.10;99.90;;;;;;4072483;29;20240;-94
2022/03/07 06:51:22;;;;;;;22.47;13.00;;;1.40;99.90;;;;;;4058675;29;20177;-94
2022/03/07 06:53:29;;;;;;;24.23;11.30;;;1.80;99.90;;;;;;4058961;29;20185;-94
2022/03/07 06:55:33;;;;;;;22.83;11.50;;;2.20;99.90;;;;;;4073425;29;20200;-93
2022/03/07 06:57:37;;;;;;;21.37;12.53;;;2.60;99.90;;;;;;4073569;29;20176;-94
2022/03/07 06:59:38;;;;;;;21.33;10.70;;;3.20;99.90;;;;;;4072668;29;20273;-94
2022/03/07 07:01:51;;;;;;;25.17;11.63;;;3.50;99.90;;;;;;4059485;29;20204;-94
2022/03/07 07:04:28;;;;;;;;;;;;;;;;;;;;;
2022/03/07 07:06:53;;;;;;;17.50;11.23;;;4.40;99.90;;;;;;4080216;29;20200;-95
2022/03/07 07:09:48;;;;;;;;;;;;;;;;;;;;;
2022/03/07 07:12:15;;;;;;;17.77;10.53;;;3.70;99.90;;;;;;4075611;29;20199;-95
2022/03/07 07:14:46;;;;;;;20.93;9.90;;;3.70;99.90;;;;;;4065150;29;20208;-95
2022/03/07 07:17:16;;;;;;;15.07;9.13;;;3.80;99.90;;;;;;4082713;29;20260;-94
2022/03/07 07:19:59;;;;;;;;;;;;;;;;;;;;;
2022/03/07 07:22:21;;;;;;;18.43;9.67;;;3.10;99.90;;;;;;4081699;29;20183;-94
2022/03/07 07:24:36;;;;;;;37.90;10.43;;;3.40;99.90;;;;;;4067041;29;20193;-95
2022/03/07 07:27:12;;;;;;;19.73;9.57;;;3.70;99.90;;;;;;4084231;29;20195;-94
2022/03/07 07:29:49;;;;;;;25.57;9.97;;;4.40;99.90;;;;;;4083052;29;20180;-95
2022/03/07 07:31:59;;;;;;;20.03;9.53;;;4.70;99.90;;;;;;4067006;29;20177;-94
2022/03/07 07:34:12;;;;;;;25.70;10.07;;;5.30;99.90;;;;;;4066266;29;20192;-94
2022/03/07 07:36:22;;;;;;;15.90;8.90;;;5.30;99.90;;;;;;4065790;29;20173;-94
2022/03/07 07:38:42;;;;;;;29.67;9.40;;;5.10;99.90;;;;;;4082938;29;20371;-95
2022/03/07 07:40:45;;;;;;;21.10;10.27;;;5.20;99.90;;;;;;4066624;29;20329;-93
2022/03/07 07:42:50;;;;;;;20.70;10.23;;;5.60;99.90;;;;;;4066982;29;20237;-95
2022/03/07 07:44:58;;;;;;;24.43;10.40;;;5.50;99.90;;;;;;4082389;29;20204;-95
2022/03/07 07:47:09;;;;;;;39.30;10.83;;;5.60;99.90;;;;;;4061008;29;20297;-94
2022/03/07 07:49:14;;;;;;;23.67;9.23;;;5.30;99.90;;;;;;4056890;29;20177;-93
2022/03/07 07:51:15;;;;;;;20.67;8.83;;;4.60;99.90;;;;;;4072128;29;20176;-94
2022/03/07 07:53:16;;;;;;;16.80;9.70;;;3.90;99.90;;;;;;4074223;29;20255;-92
2022/03/07 07:55:17;;;;;;;17.10;9.43;;;4.20;99.90;;;;;;4057111;29;20193;-95
2022/03/07 07:57:18;;;;;;;22.27;9.10;;;4.30;99.90;;;;;;4072893;29;20227;-94
2022/03/07 07:59:27;;;;;;;12.50;7.70;;;5.10;99.90;;;;;;4071368;29;20188;-94
2022/03/07 08:01:29;;;;;;;18.27;8.47;;;4.70;99.90;;;;;;4056939;29;20188;-95
2022/03/07 08:03:30;;;;;;;15.33;7.70;;;5.20;99.90;;;;;;4056167;29;20184;-93
2022/03/07 08:05:31;;;;;;;13.27;8.13;;;4.80;99.90;;;;;;4056568;29;20219;-93
2022/03/07 08:07:34;;;;;;;19.47;8.43;;;5.00;99.90;;;;;;4056933;29;20237;-92
2022/03/07 08:09:35;;;;;;;16.63;8.07;;;4.90;99.90;;;;;;4057888;29;20169;-94
2022/03/07 08:11:36;;;;;;;14.23;7.40;;;5.00;99.90;;;;;;4057312;29;20300;-95
2022/03/07 08:13:37;;;;;;;11.20;6.47;;;4.80;99.90;;;;;;4057484;29;20678;-93
2022/03/07 08:15:40;;;;;;;13.93;7.07;;;4.80;99.90;;;;;;4056626;29;20193;-95
2022/03/07 08:17:46;;;;;;;12.30;6.83;;;5.30;99.90;;;;;;4056703;29;20172;-93
2022/03/07 08:20:00;;;;;;;10.87;7.00;;;5.30;99.90;;;;;;4056793;29;20173;-93
2022/03/07 08:22:09;;;;;;;7.77;5.87;;;5.30;99.90;;;;;;4056705;29;20180;-93
2022/03/07 08:24:10;;;;;;;10.43;5.17;;;5.10;99.90;;;;;;4055681;29;20180;-94
2022/03/07 08:26:11;;;;;;;8.50;5.50;;;4.80;99.90;;;;;;4056429;29;20708;-94
2022/03/07 08:28:12;;;;;;;9.77;5.27;;;5.00;99.90;;;;;;4054700;29;20176;-94
2022/03/07 08:30:15;;;;;;;7.50;5.03;;;5.50;99.90;;;;;;4057204;29;20220;-94
2022/03/07 08:32:15;;;;;;;11.43;5.33;;;5.10;99.90;;;;;;4055653;29;20177;-94
2022/03/07 08:34:19;;;;;;;8.37;4.43;;;5.20;99.90;;;;;;4070129;29;20759;-95
2022/03/07 08:36:20;;;;;;;9.27;4.17;;;5.60;99.90;;;;;;4070507;29;20188;-95
2022/03/07 08:38:21;;;;;;;10.17;4.50;;;5.60;99.90;;;;;;4054843;29;20177;-94
2022/03/07 08:40:23;;;;;;;7.40;4.13;;;5.70;99.90;;;;;;4070227;29;20187;-93
2022/03/07 08:42:40;;;;;;;6.57;4.53;;;5.80;99.90;;;;;;4054681;29;20185;-94
2022/03/07 08:44:41;;;;;;;10.13;3.17;;;5.60;99.90;;;;;;4055015;29;20193;-94
2022/03/07 08:46:42;;;;;;;8.80;3.97;;;5.50;99.90;;;;;;4069651;29;20224;-94
2022/03/07 08:48:46;;;;;;;9.20;3.50;;;5.50;99.90;;;;;;4054543;29;20169;-93
2022/03/07 08:50:48;;;;;;;6.77;3.43;;;5.60;99.90;;;;;;4069983;29;20637;-92
2022/03/07 08:52:49;;;;;;;8.67;3.70;;;5.60;99.90;;;;;;4056251;29;20240;-94
2022/03/07 08:54:50;;;;;;;9.80;3.07;;;5.60;99.90;;;;;;4054692;29;20197;-93
2022/03/07 08:56:51;;;;;;;8.07;3.30;;;5.10;99.90;;;;;;4055844;29;20177;-94
2022/03/07 08:58:52;;;;;;;5.83;3.03;;;5.20;99.90;;;;;;4054896;29;20519;-94
2022/03/07 09:00:53;;;;;;;9.30;3.43;;;5.00;99.90;;;;;;4055109;29;20169;-95
2022/03/07 09:02:54;;;;;;;5.60;3.10;;;4.90;99.90;;;;;;4070914;29;20180;-92
2022/03/07 09:04:55;;;;;;;9.30;2.50;;;5.00;99.90;;;;;;4072693;29;20196;-94
2022/03/07 09:06:58;;;;;;;5.37;2.53;;;4.80;99.90;;;;;;4056523;29;20185;-96
2022/03/07 09:09:08;;;;;;;5.23;3.00;;;4.50;99.90;;;;;;4058732;29;20177;-95
2022/03/07 09:11:08;;;;;;;9.23;3.00;;;4.30;99.90;;;;;;4056411;29;20184;-93
2022/03/07 09:13:14;;;;;;;9.57;2.20;;;4.40;99.90;;;;;;4056176;29;20276;-93
2022/03/07 09:15:18;;;;;;;6.70;3.27;;;4.80;99.90;;;;;;4056740;29;20204;-95
2022/03/07 09:17:23;;;;;;;6.73;3.07;;;4.70;99.90;;;;;;4071941;29;20220;-94
2022/03/07 09:19:23;;;;;;;4.77;2.23;;;4.80;99.90;;;;;;4056799;29;20185;-93
2022/03/07 09:21:24;;;;;;;10.63;3.33;;;4.60;99.90;;;;;;4055689;29;20233;-93
2022/03/07 09:23:33;;;;;;;7.67;3.90;;;4.90;99.90;;;;;;4056902;29;20637;-93
2022/03/07 09:25:33;;;;;;;4.37;2.63;;;5.10;99.90;;;;;;4071064;29;20561;-93
2022/03/07 09:27:35;;;;;;;4.83;2.53;;;5.00;99.90;;;;;;4070808;29;20271;-94
2022/03/07 09:29:39;;;;;;;3.80;2.30;;;4.90;99.90;;;;;;4056419;29;20177;-94
2022/03/07 09:31:43;;;;;;;5.87;2.67;;;4.90;99.90;;;;;;4072191;29;20176;-94
2022/03/07 09:33:44;;;;;;;9.20;4.50;;;4.70;99.90;;;;;;4055586;29;20184;-94
2022/03/07 09:35:47;;;;;;;4.87;2.63;;;5.20;99.90;;;;;;4056275;29;20287;-93
2022/03/07 09:37:48;;;;;;;5.73;2.60;;;4.90;99.90;;;;;;4054760;29;20217;-91
2022/03/07 09:39:49;;;;;;;6.07;2.50;;;5.50;99.90;;;;;;4055024;29;20195;-93
2022/03/07 09:41:52;;;;;;;4.53;2.63;;;5.40;99.90;;;;;;4071032;29;20231;-92
2022/03/07 09:43:52;;;;;;;5.77;2.53;;;5.30;99.90;;;;;;4054705;29;20561;-92
2022/03/07 09:45:59;;;;;;;4.27;1.37;;;5.30;99.90;;;;;;4056643;29;20221;-93
2022/03/07 09:48:00;;;;;;;7.47;2.60;;;4.80;99.90;;;;;;4070276;29;20176;-93
2022/03/07 09:50:01;;;;;;;4.80;2.33;;;4.70;99.90;;;;;;4072245;29;20184;-92
2022/03/07 09:52:03;;;;;;;5.63;2.73;;;4.60;99.90;;;;;;4056455;29;20185;-92
2022/03/07 09:54:06;;;;;;;4.07;2.33;;;4.70;99.90;;;;;;4057775;29;20184;-93
2022/03/07 09:56:07;;;;;;;5.97;2.50;;;4.70;99.90;;;;;;4057143;29;20180;-93
2022/03/07 09:58:10;;;;;;;4.13;2.70;;;4.90;99.90;;;;;;4055352;29;20193;-94
2022/03/07 10:00:14;;;;;;;4.67;1.83;;;4.90;99.90;;;;;;4062244;29;20220;-94
2022/03/07 10:02:25;;;;;;;3.43;2.33;;;4.90;99.90;;;;;;4086135;29;20165;-94
2022/03/07 10:04:30;;;;;;;5.60;2.80;;;4.60;99.90;;;;;;4087460;29;20176;-92
2022/03/07 10:06:31;;;;;;;4.47;2.17;;;4.60;99.90;;;;;;4071480;29;20189;-94
2022/03/07 10:08:32;;;;;;;3.90;2.17;;;4.30;99.90;;;;;;4071989;29;20161;-93
2022/03/07 10:10:41;;;;;;;7.00;2.60;;;4.10;99.90;;;;;;4087630;29;20279;-92
2022/03/07 10:12:50;;;;;;;6.03;2.73;;;4.10;99.90;;;;;;4068796;29;20192;-90
2022/03/07 10:14:51;;;;;;;4.50;1.93;;;4.30;99.90;;;;;;4067802;29;20196;-91
2022/03/07 10:16:54;;;;;;;5.50;2.33;;;4.10;99.90;;;;;;4068010;29;20188;-91
2022/03/07 10:18:55;;;;;;;6.60;2.57;;;3.90;99.90;;;;;;4068977;29;20553;-90
2022/03/07 10:20:59;;;;;;;4.27;1.63;;;3.90;99.90;;;;;;4083804;29;20192;-92
2022/03/07 10:23:00;;;;;;;7.03;3.03;;;4.00;99.90;;;;;;4068226;29;20177;-91
2022/03/07 10:25:04;;;;;;;5.07;2.00;;;4.00;99.90;;;;;;4067530;29;20205;-93
2022/03/07 10:27:04;;;;;;;2.43;1.37;;;3.90;99.90;;;;;;4065827;29;20177;-93
2022/03/07 10:29:06;;;;;;;4.03;2.87;;;3.80;99.90;;;;;;4062011;29;20177;-91
2022/03/07 10:31:17;;;;;;;4.63;3.13;;;3.90;99.90;;;;;;4053878;29;20188;-93
2022/03/07 10:33:25;;;;;;;6.83;2.90;;;4.30;99.90;;;;;;4069140;29;20179;-92
2022/03/07 10:35:37;;;;;;;6.50;3.60;;;4.30;99.90;;;;;;4053194;29;20626;-92
2022/03/07 10:37:39;;;;;;;5.60;2.60;;;4.40;99.90;;;;;;4069552;29;20275;-91
2022/03/07 10:39:52;;;;;;;5.43;3.00;;;4.30;99.90;;;;;;4054161;29;20249;-91
2022/03/07 10:41:53;;;;;;;6.60;3.00;;;4.50;99.90;;;;;;4054499;29;20180;-92
2022/03/07 10:43:54;;;;;;;8.63;2.93;;;4.60;99.90;;;;;;4041540;29;20666;-91
2022/03/07 10:45:58;;;;;;;7.97;3.57;;;4.60;99.90;;;;;;4070446;29;20220;-92
2022/03/07 10:48:02;;;;;;;5.17;2.80;;;4.50;99.90;;;;;;4053033;29;20177;-91